Time;durP1;ratioP1;P1;durP2;ratioP2;P2;SDS_P1;SDS_P2;PMS_P1;PMS_P2;Temp;Humidity;BMP_temperature;BMP_pressure;BME280_temperature;BME280_humidity;BME280_pressure;Samples;Min_cycle;Max_cycle;Signal;HPM_P1;HPM_P2
2023/03/07 00:01:38;;;;;;;12.23;7.53;;;;;;;;;;6174529;23;20149;-86
2023/03/07 00:04:45;;;;;;;15.60;7.47;;;;;;;;;;6191222;23;20181;-86
2023/03/07 00:07:49;;;;;;;15.53;8.80;;;;;;;;;;6166002;23;20193;-86
2023/03/07 00:10:53;;;;;;;10.37;7.20;;;;;;;;;;6164612;23;20173;-86
2023/03/07 00:13:58;;;;;;;11.57;7.57;;;;;;;;;;6157707;23;20153;-86
2023/03/07 00:17:02;;;;;;;14.70;9.20;;;;;;;;;;6153006;23;20644;-86
2023/03/07 00:20:07;;;;;;;10.60;7.40;;;;;;;;;;6157260;23;20521;-86
2023/03/07 00:23:11;;;;;;;12.70;7.93;;;;;;;;;;6157302;23;20500;-86
2023/03/07 00:26:18;;;;;;;11.13;7.40;;;;;;;;;;6147433;23;20616;-86
2023/03/07 00:29:23;;;;;;;12.53;7.93;;;;;;;;;;6157164;23;20819;-86
2023/03/07 00:32:27;;;;;;;14.43;9.03;;;;;;;;;;6157388;23;20157;-86
2023/03/07 00:35:31;;;;;;;12.83;8.27;;;;;;;;;;6174461;23;20501;-86
2023/03/07 00:38:36;;;;;;;13.83;8.00;;;;;;;;;;6174217;23;20455;-86
2023/03/07 00:41:40;;;;;;;13.20;8.13;;;;;;;;;;6156929;23;20512;-86
2023/03/07 00:44:44;;;;;;;11.30;7.00;;;;;;;;;;6174011;23;20560;-86
2023/03/07 00:47:48;;;;;;;14.70;8.57;;;;;;;;;;6165770;23;20894;-86
2023/03/07 00:50:52;;;;;;;12.87;7.33;;;;;;;;;;6174044;23;20505;-86
2023/03/07 00:53:57;;;;;;;11.73;7.57;;;;;;;;;;6174039;23;20505;-86
2023/03/07 00:57:01;;;;;;;14.13;7.60;;;;;;;;;;6169136;23;20189;-86
2023/03/07 01:00:06;;;;;;;12.90;7.50;;;;;;;;;;6190960;23;20501;-86
2023/03/07 01:03:10;;;;;;;12.60;7.47;;;;;;;;;;6173658;23;20517;-86
2023/03/07 01:06:17;;;;;;;11.77;7.23;;;;;;;;;;6146929;23;20612;-86
2023/03/07 01:09:22;;;;;;;12.97;7.93;;;;;;;;;;6173947;23;20501;-86
2023/03/07 01:12:27;;;;;;;13.73;7.80;;;;;;;;;;6147263;23;20548;-86
2023/03/07 01:15:31;;;;;;;10.83;7.37;;;;;;;;;;6147491;23;20552;-86
2023/03/07 01:18:35;;;;;;;12.93;7.77;;;;;;;;;;6163730;23;20556;-86
2023/03/07 01:21:41;;;;;;;12.90;7.83;;;;;;;;;;6190854;23;20509;-86
2023/03/07 01:24:46;;;;;;;10.50;7.50;;;;;;;;;;6157362;23;20501;-86
2023/03/07 01:27:54;;;;;;;11.43;7.20;;;;;;;;;;6150558;23;20576;-86
2023/03/07 01:30:59;;;;;;;13.37;7.30;;;;;;;;;;6175277;23;20516;-86
2023/03/07 01:34:03;;;;;;;12.73;7.97;;;;;;;;;;6157814;23;20513;-86
2023/03/07 01:37:11;;;;;;;12.50;7.37;;;;;;;;;;6165637;23;20592;-86
2023/03/07 01:40:15;;;;;;;11.70;7.80;;;;;;;;;;6157767;23;20505;-86
2023/03/07 01:43:27;;;;;;;14.23;7.87;;;;;;;;;;6158307;23;20500;-86
2023/03/07 01:46:43;;;;;;;10.70;7.10;;;;;;;;;;6156066;23;20616;-86
2023/03/07 01:49:48;;;;;;;16.87;9.10;;;;;;;;;;6175244;23;20455;-86
2023/03/07 01:52:57;;;;;;;11.93;7.60;;;;;;;;;;6158560;23;20509;-86
2023/03/07 01:56:02;;;;;;;13.20;7.40;;;;;;;;;;6157341;23;21044;-85
2023/03/07 01:59:07;;;;;;;14.27;7.97;;;;;;;;;;6158115;23;20516;-86
2023/03/07 02:02:17;;;;;;;14.73;7.60;;;;;;;;;;6157844;23;20513;-86
2023/03/07 02:05:31;;;;;;;12.83;7.70;;;;;;;;;;6165672;23;20604;-86
2023/03/07 02:08:39;;;;;;;14.20;7.60;;;;;;;;;;6164562;23;20552;-89
2023/03/07 02:11:44;;;;;;;12.00;7.77;;;;;;;;;;6174532;23;20517;-86
2023/03/07 02:14:50;;;;;;;13.40;7.47;;;;;;;;;;6158010;23;20504;-86
2023/03/07 02:17:57;;;;;;;12.30;7.40;;;;;;;;;;6149132;23;20580;-86
2023/03/07 02:21:17;;;;;;;14.03;8.10;;;;;;;;;;6157709;23;21043;-86
2023/03/07 02:24:33;;;;;;;10.93;7.27;;;;;;;;;;6174887;23;20505;-86
2023/03/07 02:27:38;;;;;;;17.03;8.50;;;;;;;;;;6150378;23;20568;-86
2023/03/07 02:31:01;;;;;;;11.87;7.60;;;;;;;;;;6158122;23;20505;-86
2023/03/07 02:34:25;;;;;;;14.73;8.37;;;;;;;;;;6158557;23;20501;-86
2023/03/07 02:37:40;;;;;;;11.93;7.90;;;;;;;;;;6166832;23;20603;-86
2023/03/07 02:40:44;;;;;;;13.70;8.30;;;;;;;;;;6157653;23;20509;-86
2023/03/07 02:43:48;;;;;;;12.27;8.30;;;;;;;;;;6158152;23;20807;-86
2023/03/07 02:46:52;;;;;;;14.13;8.13;;;;;;;;;;6153771;23;20615;-86
2023/03/07 02:49:59;;;;;;;13.80;8.00;;;;;;;;;;6158010;23;20504;-86
2023/03/07 02:53:04;;;;;;;15.73;8.00;;;;;;;;;;6157628;23;20505;-86
2023/03/07 02:56:08;;;;;;;12.43;8.07;;;;;;;;;;6164659;23;20552;-86
2023/03/07 02:59:12;;;;;;;14.17;8.20;;;;;;;;;;6157565;23;20501;-86
2023/03/07 03:02:16;;;;;;;12.77;7.80;;;;;;;;;;6174488;23;20521;-86
2023/03/07 03:05:20;;;;;;;13.47;8.50;;;;;;;;;;6147906;23;20600;-86
2023/03/07 03:08:25;;;;;;;13.03;8.30;;;;;;;;;;6148099;23;20556;-86
2023/03/07 03:11:29;;;;;;;12.47;7.67;;;;;;;;;;6164707;23;20560;-86
2023/03/07 03:14:33;;;;;;;14.30;8.27;;;;;;;;;;6157830;23;20505;-86
2023/03/07 03:17:38;;;;;;;12.97;8.30;;;;;;;;;;6150009;23;20579;-86
2023/03/07 03:20:41;;;;;;;13.80;8.53;;;;;;;;;;6157445;23;20501;-86
2023/03/07 03:23:46;;;;;;;14.00;8.80;;;;;;;;;;6157054;23;20508;-86
2023/03/07 03:26:50;;;;;;;20.10;8.20;;;;;;;;;;6169327;23;20616;-86
2023/03/07 03:29:57;;;;;;;13.50;8.17;;;;;;;;;;6172819;23;20504;-86
2023/03/07 03:33:02;;;;;;;12.23;8.17;;;;;;;;;;6172850;23;20505;-86
2023/03/07 03:36:13;;;;;;;13.93;8.43;;;;;;;;;;6171980;23;20501;-86
2023/03/07 03:39:18;;;;;;;12.73;8.57;;;;;;;;;;6156185;23;20552;-86
2023/03/07 03:42:26;;;;;;;14.87;8.53;;;;;;;;;;6147295;23;20590;-86
2023/03/07 03:45:30;;;;;;;12.47;8.00;;;;;;;;;;6172876;23;20560;-86
2023/03/07 03:48:35;;;;;;;12.57;8.53;;;;;;;;;;6156044;23;20517;-86
2023/03/07 03:51:39;;;;;;;15.40;8.07;;;;;;;;;;6172935;23;20504;-86
2023/03/07 03:54:43;;;;;;;13.10;8.30;;;;;;;;;;6173448;23;20815;-86
2023/03/07 03:57:47;;;;;;;14.97;8.60;;;;;;;;;;6165260;23;20580;-86
2023/03/07 04:00:51;;;;;;;13.77;8.33;;;;;;;;;;6156569;23;20504;-87
2023/03/07 04:03:56;;;;;;;13.37;8.30;;;;;;;;;;6155741;23;21056;-86
2023/03/07 04:07:00;;;;;;;14.70;9.13;;;;;;;;;;6167806;23;20608;-86
2023/03/07 04:10:05;;;;;;;12.70;8.27;;;;;;;;;;6146273;23;20556;-86
2023/03/07 04:13:10;;;;;;;13.33;7.63;;;;;;;;;;6172998;23;20505;-86
2023/03/07 04:16:15;;;;;;;16.53;9.27;;;;;;;;;;6154204;23;21112;-86
2023/03/07 04:19:20;;;;;;;13.17;8.53;;;;;;;;;;6144616;23;20839;-86
2023/03/07 04:22:24;;;;;;;12.60;8.37;;;;;;;;;;6161880;23;21095;-86
2023/03/07 04:25:28;;;;;;;14.17;8.17;;;;;;;;;;6173178;23;20500;-86
2023/03/07 04:28:44;;;;;;;13.63;8.17;;;;;;;;;;6157393;23;20509;-86
2023/03/07 04:31:52;;;;;;;14.17;8.80;;;;;;;;;;6158198;23;20501;-86
2023/03/07 04:34:57;;;;;;;14.93;8.37;;;;;;;;;;6174271;23;21028;-86
2023/03/07 04:38:01;;;;;;;14.53;8.50;;;;;;;;;;6164987;23;20591;-86
2023/03/07 04:41:06;;;;;;;11.93;8.33;;;;;;;;;;6157436;23;20509;-86
2023/03/07 04:44:10;;;;;;;15.77;9.17;;;;;;;;;;6157281;23;21029;-86
2023/03/07 04:47:15;;;;;;;14.10;8.77;;;;;;;;;;6168388;23;20611;-86
2023/03/07 04:50:20;;;;;;;13.27;8.10;;;;;;;;;;6173963;23;20509;-86
2023/03/07 04:53:25;;;;;;;13.53;8.23;;;;;;;;;;6157064;23;20501;-88
2023/03/07 04:56:29;;;;;;;12.17;7.80;;;;;;;;;;6154626;23;20580;-86
2023/03/07 04:59:37;;;;;;;13.53;8.80;;;;;;;;;;6173283;23;20501;-86
2023/03/07 05:02:42;;;;;;;11.57;7.80;;;;;;;;;;6157080;23;20564;-86
2023/03/07 05:05:46;;;;;;;13.70;8.43;;;;;;;;;;6146935;23;20870;-86
2023/03/07 05:08:50;;;;;;;14.10;9.00;;;;;;;;;;6163901;23;20555;-86
2023/03/07 05:11:54;;;;;;;14.30;8.60;;;;;;;;;;6156973;23;20509;-86
2023/03/07 05:14:59;;;;;;;14.07;8.27;;;;;;;;;;6157210;23;20806;-86
2023/03/07 05:18:04;;;;;;;14.10;8.50;;;;;;;;;;6148023;23;20568;-86
2023/03/07 05:21:08;;;;;;;16.93;8.97;;;;;;;;;;6156871;23;20807;-86
2023/03/07 05:24:12;;;;;;;16.87;8.83;;;;;;;;;;6156757;23;20538;-86
2023/03/07 05:27:16;;;;;;;12.87;8.47;;;;;;;;;;6167997;23;20918;-86
2023/03/07 05:30:21;;;;;;;13.70;8.07;;;;;;;;;;6173745;23;20505;-86
2023/03/07 05:33:25;;;;;;;14.50;8.63;;;;;;;;;;6158943;23;21024;-86
2023/03/07 05:36:29;;;;;;;15.03;8.83;;;;;;;;;;6179076;22;21234;-88
2023/03/07 05:39:33;;;;;;;18.43;10.30;;;;;;;;;;6363487;22;20515;-87
2023/03/07 05:42:37;;;;;;;14.83;9.13;;;;;;;;;;6336069;22;21081;-88
2023/03/07 05:45:41;;;;;;;15.30;8.47;;;;;;;;;;6318157;22;20543;-88
2023/03/07 05:48:45;;;;;;;14.40;8.10;;;;;;;;;;6285833;22;20544;-87
2023/03/07 05:51:50;;;;;;;14.70;7.83;;;;;;;;;;6297141;22;20504;-87
2023/03/07 05:54:54;;;;;;;13.63;8.50;;;;;;;;;;6297374;22;20508;-88
2023/03/07 05:57:59;;;;;;;13.03;8.77;;;;;;;;;;6305661;22;20884;-87
2023/03/07 06:01:04;;;;;;;14.97;7.97;;;;;;;;;;6296923;22;20497;-88
2023/03/07 06:04:09;;;;;;;14.17;7.73;;;;;;;;;;6295897;22;21028;-87
2023/03/07 06:07:13;;;;;;;13.67;7.87;;;;;;;;;;6308694;22;20607;-87
2023/03/07 06:10:17;;;;;;;15.37;7.93;;;;;;;;;;6314495;22;20504;-88
2023/03/07 06:13:23;;;;;;;14.20;8.07;;;;;;;;;;6315260;22;20500;-88
2023/03/07 06:16:53;;;;;;;12.00;6.73;;;;;;;;;;6296293;22;20575;-87
2023/03/07 06:20:03;;;;;;;14.27;8.57;;;;;;;;;;6314930;22;21020;-88
2023/03/07 06:23:08;;;;;;;12.43;7.73;;;;;;;;;;6333229;22;20504;-88
2023/03/07 06:26:12;;;;;;;45.27;23.47;;;;;;;;;;6314182;22;20508;-88
2023/03/07 06:29:17;;;;;;;13.27;9.43;;;;;;;;;;6287289;22;20559;-88
2023/03/07 06:32:21;;;;;;;14.33;8.43;;;;;;;;;;6305625;22;20551;-89
2023/03/07 06:35:25;;;;;;;12.47;7.67;;;;;;;;;;6314594;22;20499;-88
2023/03/07 06:38:30;;;;;;;13.33;8.03;;;;;;;;;;6273270;22;20902;-88
2023/03/07 06:41:34;;;;;;;11.90;7.40;;;;;;;;;;6256362;22;20556;-88
2023/03/07 06:44:39;;;;;;;12.27;8.13;;;;;;;;;;6284378;22;20811;-88
2023/03/07 06:47:44;;;;;;;15.53;8.90;;;;;;;;;;6273266;22;20604;-88
2023/03/07 06:50:48;;;;;;;14.03;7.00;;;;;;;;;;6300998;22;20501;-88
2023/03/07 06:53:52;;;;;;;12.70;7.53;;;;;;;;;;6301538;22;20497;-88
2023/03/07 06:56:57;;;;;;;11.83;7.30;;;;;;;;;;6280311;22;20568;-87
2023/03/07 07:00:04;;;;;;;12.93;7.67;;;;;;;;;;6266809;22;20501;-88
2023/03/07 07:03:14;;;;;;;14.60;8.20;;;;;;;;;;6285029;22;20154;-87
2023/03/07 07:06:18;;;;;;;11.90;7.60;;;;;;;;;;6265665;22;20501;-86
2023/03/07 07:09:22;;;;;;;14.10;7.47;;;;;;;;;;6301544;22;20509;-87
2023/03/07 07:12:26;;;;;;;14.37;8.03;;;;;;;;;;6255764;22;20170;-87
2023/03/07 07:15:31;;;;;;;11.63;7.97;;;;;;;;;;6284033;22;20505;-87
2023/03/07 07:18:36;;;;;;;14.07;8.97;;;;;;;;;;6266148;22;20150;-87
2023/03/07 07:21:42;;;;;;;14.00;7.60;;;;;;;;;;6266410;22;20150;-87
2023/03/07 07:24:52;;;;;;;12.40;7.80;;;;;;;;;;6266104;22;20803;-88
2023/03/07 07:27:56;;;;;;;13.73;8.40;;;;;;;;;;6276162;22;20604;-89
2023/03/07 07:31:00;;;;;;;13.03;7.90;;;;;;;;;;6284512;22;20158;-89
2023/03/07 07:34:07;;;;;;;13.13;7.83;;;;;;;;;;6283532;22;20151;-89
2023/03/07 07:37:11;;;;;;;12.03;7.60;;;;;;;;;;6309536;22;20189;-89
2023/03/07 07:40:16;;;;;;;10.77;7.37;;;;;;;;;;6297831;22;20150;-88
2023/03/07 07:43:23;;;;;;;11.57;6.80;;;;;;;;;;6298366;22;20154;-88
2023/03/07 07:46:48;;;;;;;10.57;7.20;;;;;;;;;;6308597;22;20193;-89
2023/03/07 07:49:53;;;;;;;10.77;6.80;;;;;;;;;;6287127;22;20174;-88
2023/03/07 07:52:57;;;;;;;12.67;7.67;;;;;;;;;;6287222;22;20170;-88
2023/03/07 07:56:02;;;;;;;11.67;7.03;;;;;;;;;;6315228;22;20467;-88
2023/03/07 07:59:06;;;;;;;11.90;6.93;;;;;;;;;;6297370;22;20146;-88
2023/03/07 08:02:12;;;;;;;11.40;7.03;;;;;;;;;;6314804;22;20149;-88
2023/03/07 08:05:18;;;;;;;10.93;6.97;;;;;;;;;;6314765;22;20150;-88
2023/03/07 08:08:22;;;;;;;11.30;6.93;;;;;;;;;;6287320;22;20193;-88
2023/03/07 08:11:27;;;;;;;10.40;6.30;;;;;;;;;;6332395;22;20464;-87
2023/03/07 08:14:32;;;;;;;9.97;5.70;;;;;;;;;;6333123;22;20460;-86
2023/03/07 08:17:36;;;;;;;11.93;6.23;;;;;;;;;;6327036;22;20185;-87
2023/03/07 08:20:40;;;;;;;11.73;6.63;;;;;;;;;;6287619;22;20165;-86
2023/03/07 08:23:45;;;;;;;9.27;5.97;;;;;;;;;;6287345;22;20168;-87
2023/03/07 08:26:49;;;;;;;11.63;5.27;;;;;;;;;;6311752;22;20185;-86
2023/03/07 08:29:53;;;;;;;8.97;5.67;;;;;;;;;;6304731;22;20166;-87
2023/03/07 08:33:27;;;;;;;9.60;6.40;;;;;;;;;;6296162;22;20149;-87
2023/03/07 08:36:32;;;;;;;9.67;6.27;;;;;;;;;;6330994;22;20193;-88
2023/03/07 08:39:36;;;;;;;8.43;5.93;;;;;;;;;;6296655;22;20153;-87
2023/03/07 08:42:42;;;;;;;10.40;5.97;;;;;;;;;;6332455;22;20153;-89
2023/03/07 08:45:49;;;;;;;9.13;6.30;;;;;;;;;;6314508;22;20153;-88
2023/03/07 08:48:53;;;;;;;8.53;6.40;;;;;;;;;;6332159;22;20510;-88
2023/03/07 08:51:57;;;;;;;10.70;6.57;;;;;;;;;;6296675;22;20517;-88
2023/03/07 08:55:01;;;;;;;7.53;5.83;;;;;;;;;;6286263;22;20169;-89
2023/03/07 08:58:06;;;;;;;9.53;6.00;;;;;;;;;;6286754;22;20181;-88
2023/03/07 09:01:13;;;;;;;9.83;6.70;;;;;;;;;;6313904;22;20590;-89
2023/03/07 09:04:18;;;;;;;9.03;6.17;;;;;;;;;;6314428;22;20150;-89
2023/03/07 09:07:55;;;;;;;8.87;6.73;;;;;;;;;;6286785;22;20189;-88
2023/03/07 09:11:04;;;;;;;8.87;6.47;;;;;;;;;;6305119;22;20177;-89
2023/03/07 09:14:16;;;;;;;9.13;6.00;;;;;;;;;;6296597;22;20158;-87
2023/03/07 09:17:20;;;;;;;8.80;5.63;;;;;;;;;;6301701;22;20189;-89
2023/03/07 09:20:24;;;;;;;8.93;6.37;;;;;;;;;;6311472;22;20157;-86
2023/03/07 09:23:28;;;;;;;8.00;5.73;;;;;;;;;;6293689;22;20153;-88
2023/03/07 09:26:33;;;;;;;8.73;6.50;;;;;;;;;;6319749;22;20189;-85
2023/03/07 09:29:37;;;;;;;10.27;6.17;;;;;;;;;;6304598;22;20162;-85
2023/03/07 09:32:42;;;;;;;9.97;6.17;;;;;;;;;;6296994;22;20146;-85
2023/03/07 09:35:47;;;;;;;8.93;5.47;;;;;;;;;;6286628;22;20173;-86
2023/03/07 09:38:51;;;;;;;8.50;6.07;;;;;;;;;;6297627;22;20166;-83
2023/03/07 09:42:26;;;;;;;8.73;6.20;;;;;;;;;;6303634;22;20622;-85
2023/03/07 09:45:49;;;;;;;10.47;6.33;;;;;;;;;;6314606;22;20153;-84
2023/03/07 09:49:10;;;;;;;8.80;5.93;;;;;;;;;;6297726;22;20471;-85
2023/03/07 09:52:24;;;;;;;9.57;6.63;;;;;;;;;;6297831;22;20153;-86
2023/03/07 09:55:30;;;;;;;10.40;6.23;;;;;;;;;;6287767;22;20170;-85
2023/03/07 09:58:39;;;;;;;12.67;7.70;;;;;;;;;;6314599;22;20173;-85
2023/03/07 10:01:44;;;;;;;9.83;7.03;;;;;;;;;;6297703;22;20467;-85
2023/03/07 10:05:05;;;;;;;8.90;5.97;;;;;;;;;;6315150;22;20490;-84
2023/03/07 10:08:17;;;;;;;7.93;5.53;;;;;;;;;;6287542;22;20181;-85
2023/03/07 10:11:24;;;;;;;5.40;4.17;;;;;;;;;;6304335;22;20169;-84
2023/03/07 10:14:46;;;;;;;6.80;5.23;;;;;;;;;;6296299;22;20153;-85
2023/03/07 10:18:19;;;;;;;6.63;4.90;;;;;;;;;;6288803;22;20193;-85
2023/03/07 10:21:49;;;;;;;8.37;5.53;;;;;;;;;;6296695;22;20158;-85
2023/03/07 10:25:28;;;;;;;8.23;5.40;;;;;;;;;;6314931;22;20456;-85
2023/03/07 10:28:36;;;;;;;7.83;5.53;;;;;;;;;;6304265;22;20185;-85
2023/03/07 10:31:46;;;;;;;7.33;5.27;;;;;;;;;;6314404;22;20154;-85
2023/03/07 10:34:59;;;;;;;8.17;5.47;;;;;;;;;;6303862;22;20169;-85
2023/03/07 10:38:17;;;;;;;6.80;5.70;;;;;;;;;;6303165;22;20197;-85
2023/03/07 10:41:21;;;;;;;10.97;5.30;;;;;;;;;;6316317;22;20153;-86
2023/03/07 10:44:28;;;;;;;6.70;5.27;;;;;;;;;;6298224;22;20459;-86
2023/03/07 10:47:32;;;;;;;6.63;4.70;;;;;;;;;;6291132;22;20189;-86
2023/03/07 10:51:04;;;;;;;7.43;5.03;;;;;;;;;;6297657;22;20161;-85
2023/03/07 10:54:15;;;;;;;7.43;5.33;;;;;;;;;;6331776;22;20145;-85
2023/03/07 10:57:26;;;;;;;10.07;5.90;;;;;;;;;;6291305;22;20189;-85
2023/03/07 11:00:31;;;;;;;9.63;6.77;;;;;;;;;;6314528;22;20460;-86
2023/03/07 11:03:48;;;;;;;8.33;5.20;;;;;;;;;;6303769;22;20169;-86
2023/03/07 11:06:55;;;;;;;7.20;5.37;;;;;;;;;;6293235;22;20185;-86
2023/03/07 11:10:21;;;;;;;9.60;5.47;;;;;;;;;;6296200;22;20141;-85
2023/03/07 11:13:26;;;;;;;9.73;6.53;;;;;;;;;;6314591;22;20179;-86
2023/03/07 11:16:30;;;;;;;12.17;6.77;;;;;;;;;;6294964;22;20185;-85
2023/03/07 11:19:38;;;;;;;8.77;5.80;;;;;;;;;;6296688;22;20174;-85
2023/03/07 11:22:43;;;;;;;9.87;6.43;;;;;;;;;;6313592;22;20157;-86
2023/03/07 11:25:47;;;;;;;10.47;6.40;;;;;;;;;;6285643;22;20169;-85
2023/03/07 11:29:27;;;;;;;11.87;6.37;;;;;;;;;;6286088;22;20606;-85
2023/03/07 11:32:32;;;;;;;11.20;6.83;;;;;;;;;;6281556;22;20173;-85
2023/03/07 11:36:12;;;;;;;12.70;6.17;;;;;;;;;;6313108;22;20154;-85
2023/03/07 11:39:38;;;;;;;9.63;6.67;;;;;;;;;;6331506;22;20630;-85
2023/03/07 11:42:49;;;;;;;9.50;6.17;;;;;;;;;;6296425;22;20154;-84
2023/03/07 11:46:10;;;;;;;13.17;6.73;;;;;;;;;;6313544;22;20154;-85
2023/03/07 11:49:38;;;;;;;10.67;6.03;;;;;;;;;;6331284;22;20153;-85
2023/03/07 11:53:23;;;;;;;8.17;5.87;;;;;;;;;;6331240;22;20149;-84
2023/03/07 11:56:45;;;;;;;14.80;6.37;;;;;;;;;;6294067;22;20146;-84
2023/03/07 12:00:10;;;;;;;8.00;5.70;;;;;;;;;;6349307;22;20173;-84
2023/03/07 12:03:47;;;;;;;9.67;6.20;;;;;;;;;;6331559;22;20154;-85
2023/03/07 12:06:54;;;;;;;9.63;6.40;;;;;;;;;;6292834;22;20185;-85
2023/03/07 12:10:06;;;;;;;8.63;6.27;;;;;;;;;;6312893;22;20598;-84
2023/03/07 12:13:29;;;;;;;9.03;6.43;;;;;;;;;;6303273;22;20165;-84
2023/03/07 12:17:00;;;;;;;10.40;5.67;;;;;;;;;;6293094;22;20186;-85
2023/03/07 12:20:25;;;;;;;8.33;5.03;;;;;;;;;;6294970;22;20173;-85
2023/03/07 12:23:37;;;;;;;9.57;5.73;;;;;;;;;;6295637;22;20154;-85
2023/03/07 12:27:03;;;;;;;8.10;5.77;;;;;;;;;;6311428;22;20488;-86
2023/03/07 12:30:22;;;;;;;9.17;5.70;;;;;;;;;;6187014;22;20213;-82
2023/03/07 12:34:10;;;;;;;38.07;6.73;;;;;;;;;;6173839;23;20157;-83
2023/03/07 12:37:26;;;;;;;11.83;5.60;;;;;;;;;;6125214;23;20156;-82
2023/03/07 12:40:39;;;;;;;8.43;5.60;;;;;;;;;;6092616;23;20173;-82
2023/03/07 12:43:49;;;;;;;9.00;5.70;;;;;;;;;;6144382;23;20158;-83
2023/03/07 12:47:36;;;;;;;8.40;5.37;;;;;;;;;;6127447;23;20456;-83
2023/03/07 12:50:40;;;;;;;9.97;5.67;;;;;;;;;;6053973;23;20157;-82
2023/03/07 12:53:58;;;;;;;8.13;5.93;;;;;;;;;;6110355;23;20161;-82
2023/03/07 12:57:11;;;;;;;10.67;5.90;;;;;;;;;;6133798;22;20170;-82
2023/03/07 13:00:19;;;;;;;9.40;5.80;;;;;;;;;;6151522;23;20649;-83
2023/03/07 13:03:36;;;;;;;8.73;6.27;;;;;;;;;;6144111;23;20460;-83
2023/03/07 13:06:41;;;;;;;8.50;5.77;;;;;;;;;;6127272;23;20154;-82
2023/03/07 13:09:47;;;;;;;7.40;5.43;;;;;;;;;;6153974;23;20189;-82
2023/03/07 13:12:52;;;;;;;8.37;5.37;;;;;;;;;;6126788;23;20582;-83
2023/03/07 13:16:05;;;;;;;9.87;5.73;;;;;;;;;;6126925;23;20158;-83
2023/03/07 13:19:34;;;;;;;8.93;5.63;;;;;;;;;;6137850;23;20515;-83
2023/03/07 13:22:38;;;;;;;9.93;5.97;;;;;;;;;;6111602;23;20161;-83
2023/03/07 13:25:50;;;;;;;14.63;9.30;;;;;;;;;;6101546;23;20173;-83
2023/03/07 13:28:56;;;;;;;10.03;6.30;;;;;;;;;;6123359;23;20503;-83
2023/03/07 13:32:00;;;;;;;8.20;5.50;;;;;;;;;;6128101;23;20157;-82
2023/03/07 13:35:08;;;;;;;9.63;5.77;;;;;;;;;;6128636;23;20158;-82
2023/03/07 13:38:43;;;;;;;7.70;5.30;;;;;;;;;;6143731;23;20158;-81
2023/03/07 13:41:49;;;;;;;7.37;5.33;;;;;;;;;;6128116;23;20154;-82
2023/03/07 13:44:53;;;;;;;7.90;5.50;;;;;;;;;;6161904;23;20463;-82
2023/03/07 13:47:57;;;;;;;7.37;5.20;;;;;;;;;;6162054;23;20154;-83
2023/03/07 13:51:05;;;;;;;12.00;5.50;;;;;;;;;;6144959;23;20150;-82
2023/03/07 13:54:12;;;;;;;9.13;5.63;;;;;;;;;;6146335;23;20157;-83
2023/03/07 13:57:19;;;;;;;8.40;5.77;;;;;;;;;;6128125;23;20153;-83
2023/03/07 14:00:29;;;;;;;11.93;6.20;;;;;;;;;;6120663;23;20197;-83
2023/03/07 14:03:42;;;;;;;11.43;5.43;;;;;;;;;;6115244;23;20157;-82
2023/03/07 14:06:51;;;;;;;11.90;5.67;;;;;;;;;;6148463;23;20154;-82
2023/03/07 14:10:00;;;;;;;8.33;5.67;;;;;;;;;;6139728;23;20190;-83
2023/03/07 14:13:29;;;;;;;9.00;5.37;;;;;;;;;;6103719;23;20174;-84
2023/03/07 14:16:47;;;;;;;8.93;5.73;;;;;;;;;;6130487;23;20154;-84
2023/03/07 14:20:00;;;;;;;8.57;5.33;;;;;;;;;;6119640;23;20202;-84
2023/03/07 14:23:42;;;;;;;8.53;5.33;;;;;;;;;;6127982;23;20158;-84
2023/03/07 14:26:57;;;;;;;8.57;5.80;;;;;;;;;;6127540;23;20455;-84
2023/03/07 14:30:14;;;;;;;7.13;5.63;;;;;;;;;;6134171;23;20197;-84
2023/03/07 14:33:18;;;;;;;10.20;5.77;;;;;;;;;;6110315;23;20162;-84
2023/03/07 14:36:26;;;;;;;9.37;6.27;;;;;;;;;;6111005;23;20157;-84
2023/03/07 14:39:51;;;;;;;7.53;5.40;;;;;;;;;;6120146;23;20670;-84
2023/03/07 14:43:21;;;;;;;11.97;6.10;;;;;;;;;;6129260;23;20598;-84
2023/03/07 14:46:37;;;;;;;9.37;5.90;;;;;;;;;;6129486;23;20455;-83
2023/03/07 14:50:19;;;;;;;9.50;6.03;;;;;;;;;;6125359;23;20181;-86
2023/03/07 14:53:26;;;;;;;11.67;6.23;;;;;;;;;;6117891;23;20154;-84
2023/03/07 14:56:33;;;;;;;9.00;5.77;;;;;;;;;;6140546;23;20174;-84
2023/03/07 14:59:37;;;;;;;15.13;5.83;;;;;;;;;;6143978;23;20201;-84
2023/03/07 15:03:03;;;;;;;8.80;6.27;;;;;;;;;;6105463;23;20173;-84
2023/03/07 15:06:13;;;;;;;8.43;6.50;;;;;;;;;;6114208;23;20586;-84
2023/03/07 15:09:17;;;;;;;9.37;6.00;;;;;;;;;;6140440;23;20530;-84
2023/03/07 15:12:26;;;;;;;10.43;6.37;;;;;;;;;;6128342;23;20153;-84
2023/03/07 15:15:38;;;;;;;9.67;6.07;;;;;;;;;;6101771;23;20178;-84
2023/03/07 15:18:48;;;;;;;10.50;6.80;;;;;;;;;;6158537;23;20507;-84
2023/03/07 15:21:58;;;;;;;13.27;7.37;;;;;;;;;;6145243;23;20158;-84
2023/03/07 15:25:03;;;;;;;10.37;6.53;;;;;;;;;;6128051;23;20594;-84
2023/03/07 15:28:23;;;;;;;37.77;22.33;;;;;;;;;;6108177;23;20486;-84
2023/03/07 15:31:30;;;;;;;21.37;15.23;;;;;;;;;;6111576;23;20452;-84
2023/03/07 15:34:38;;;;;;;13.13;6.67;;;;;;;;;;6146582;23;20459;-84
2023/03/07 15:38:22;;;;;;;11.40;7.33;;;;;;;;;;6113843;23;20157;-84
2023/03/07 15:41:35;;;;;;;10.23;6.67;;;;;;;;;;6128493;23;20471;-84
2023/03/07 15:44:39;;;;;;;11.77;7.20;;;;;;;;;;6118190;23;20618;-84
2023/03/07 15:47:43;;;;;;;25.07;15.53;;;;;;;;;;6132302;23;20154;-84
2023/03/07 15:51:16;;;;;;;15.20;9.53;;;;;;;;;;6148414;23;20459;-84
2023/03/07 15:54:42;;;;;;;10.23;7.30;;;;;;;;;;6122790;23;20173;-84
2023/03/07 15:57:59;;;;;;;10.13;6.97;;;;;;;;;;6147560;23;20153;-84
2023/03/07 16:01:04;;;;;;;8.07;5.70;;;;;;;;;;6122911;23;20202;-84
2023/03/07 16:04:35;;;;;;;14.73;8.30;;;;;;;;;;6137871;23;20154;-84
2023/03/07 16:07:39;;;;;;;74.57;33.67;;;;;;;;;;6156137;23;20154;-84
2023/03/07 16:10:51;;;;;;;53.90;32.03;;;;;;;;;;6134711;23;20482;-85
2023/03/07 16:13:55;;;;;;;27.53;18.07;;;;;;;;;;6127790;23;20157;-86
2023/03/07 16:17:03;;;;;;;12.20;8.17;;;;;;;;;;6117949;23;20173;-86
2023/03/07 16:20:17;;;;;;;9.03;6.40;;;;;;;;;;6100744;23;20198;-86
2023/03/07 16:23:22;;;;;;;9.27;6.00;;;;;;;;;;6110922;23;20605;-85
2023/03/07 16:26:27;;;;;;;13.13;6.53;;;;;;;;;;6161519;23;20153;-84
2023/03/07 16:29:30;;;;;;;7.40;5.63;;;;;;;;;;6121434;23;20197;-84
2023/03/07 16:36:12;;;;;;;12.23;6.43;;;;;;;;;;6132885;23;20606;-85
2023/03/07 16:39:17;;;;;;;40.60;12.77;;;;;;;;;;6121454;23;20197;-85
2023/03/07 16:42:22;;;;;;;13.20;7.93;;;;;;;;;;6143998;23;20158;-85
2023/03/07 16:45:29;;;;;;;38.50;23.97;;;;;;;;;;6110299;23;20154;-85
2023/03/07 16:48:35;;;;;;;22.83;15.37;;;;;;;;;;6101144;23;20205;-85
2023/03/07 16:51:39;;;;;;;33.20;16.77;;;;;;;;;;6134218;23;20165;-85
2023/03/07 16:54:43;;;;;;;22.67;11.73;;;;;;;;;;6101123;23;20174;-85
2023/03/07 16:57:51;;;;;;;33.03;16.33;;;;;;;;;;6110200;23;20158;-85
2023/03/07 17:00:57;;;;;;;15.70;9.07;;;;;;;;;;6110500;23;20181;-85
2023/03/07 17:04:02;;;;;;;33.17;9.57;;;;;;;;;;6126809;23;20157;-85
2023/03/07 17:07:17;;;;;;;18.53;10.10;;;;;;;;;;6110928;23;20593;-85
2023/03/07 17:10:23;;;;;;;16.83;8.00;;;;;;;;;;6110221;23;20158;-85
2023/03/07 17:13:27;;;;;;;12.07;7.50;;;;;;;;;;6126820;23;20153;-85
2023/03/07 17:16:35;;;;;;;18.10;12.03;;;;;;;;;;6109747;23;20157;-85
2023/03/07 17:19:39;;;;;;;119.00;53.77;;;;;;;;;;6119503;23;20197;-85
2023/03/07 17:22:44;;;;;;;91.67;44.53;;;;;;;;;;6187864;23;20644;-85
2023/03/07 17:25:48;;;;;;;28.60;16.27;;;;;;;;;;6116942;23;20173;-85
2023/03/07 17:28:55;;;;;;;19.80;11.47;;;;;;;;;;6122704;23;20201;-85
2023/03/07 17:31:58;;;;;;;10.60;6.60;;;;;;;;;;6126498;23;20582;-85
2023/03/07 17:35:03;;;;;;;11.50;6.37;;;;;;;;;;6133993;23;20153;-85
2023/03/07 17:38:07;;;;;;;14.20;9.03;;;;;;;;;;6126180;23;20463;-85
2023/03/07 17:41:11;;;;;;;11.63;6.63;;;;;;;;;;6109938;23;20189;-85
2023/03/07 17:44:15;;;;;;;10.47;6.20;;;;;;;;;;6110051;23;20158;-85
2023/03/07 17:47:19;;;;;;;10.40;6.10;;;;;;;;;;6117050;23;20617;-85
2023/03/07 17:50:32;;;;;;;8.60;6.07;;;;;;;;;;6116741;23;20166;-85
2023/03/07 17:53:37;;;;;;;12.03;6.23;;;;;;;;;;6110366;23;20162;-85
2023/03/07 17:56:44;;;;;;;18.07;11.80;;;;;;;;;;6126270;23;20157;-85
2023/03/07 17:59:53;;;;;;;18.30;11.17;;;;;;;;;;6135047;23;20206;-85
2023/03/07 18:02:59;;;;;;;22.93;14.63;;;;;;;;;;6094071;23;20578;-85
2023/03/07 18:06:06;;;;;;;20.90;13.17;;;;;;;;;;6126748;23;20466;-85
2023/03/07 18:09:21;;;;;;;16.60;10.80;;;;;;;;;;6122470;23;20185;-85
2023/03/07 18:12:26;;;;;;;32.70;16.50;;;;;;;;;;6198024;23;20158;-85
2023/03/07 18:15:31;;;;;;;41.20;22.43;;;;;;;;;;6101369;23;20173;-85
2023/03/07 18:18:37;;;;;;;44.47;23.43;;;;;;;;;;6125239;23;20189;-85
2023/03/07 18:21:42;;;;;;;28.03;15.97;;;;;;;;;;6127674;23;20182;-85
2023/03/07 18:24:52;;;;;;;15.47;9.47;;;;;;;;;;6111844;23;20158;-85
2023/03/07 18:28:00;;;;;;;13.03;9.43;;;;;;;;;;6125611;23;20174;-85
2023/03/07 18:31:15;;;;;;;16.70;11.13;;;;;;;;;;6117664;23;20557;-85
2023/03/07 18:34:23;;;;;;;16.60;12.50;;;;;;;;;;6127691;23;20594;-85
2023/03/07 18:37:27;;;;;;;11.80;8.57;;;;;;;;;;6111264;23;20513;-85
2023/03/07 18:40:31;;;;;;;8.27;5.17;;;;;;;;;;6144476;23;20561;-85
2023/03/07 18:43:36;;;;;;;8.00;5.00;;;;;;;;;;6117472;23;20501;-85
2023/03/07 18:46:40;;;;;;;8.10;5.30;;;;;;;;;;6134321;23;20170;-85